sensor_id;sensor_type;location;lat;lon;timestamp;P1;durP1;ratioP1;P2;durP2;ratioP2
15944;SDS011;30172;48.832;8.732;2022-09-03T00:00:10;5.35;;;2.97;;
15944;SDS011;30172;48.832;8.732;2022-09-03T00:02:49;4.50;;;2.75;;
15944;SDS011;30172;48.832;8.732;2022-09-03T00:05:40;3.53;;;3.22;;
15944;SDS011;30172;48.832;8.732;2022-09-03T00:08:11;3.83;;;3.20;;
15944;SDS011;30172;48.832;8.732;2022-09-03T00:10:55;3.13;;;2.90;;
15944;SDS011;30172;48.832;8.732;2022-09-03T00:13:32;6.80;;;2.95;;
15944;SDS011;30172;48.832;8.732;2022-09-03T00:16:02;4.05;;;3.00;;
15944;SDS011;30172;48.832;8.732;2022-09-03T00:18:34;4.53;;;3.00;;
15944;SDS011;30172;48.832;8.732;2022-09-03T00:21:04;6.40;;;2.95;;
15944;SDS011;30172;48.832;8.732;2022-09-03T00:23:34;5.03;;;3.45;;
15944;SDS011;30172;48.832;8.732;2022-09-03T00:28:40;2.95;;;2.65;;
15944;SDS011;30172;48.832;8.732;2022-09-03T00:33:59;6.38;;;3.70;;
15944;SDS011;30172;48.832;8.732;2022-09-03T00:39:00;3.47;;;3.17;;
15944;SDS011;30172;48.832;8.732;2022-09-03T00:41:40;5.13;;;3.55;;
15944;SDS011;30172;48.832;8.732;2022-09-03T00:50:16;5.72;;;3.30;;
15944;SDS011;30172;48.832;8.732;2022-09-03T00:52:59;3.60;;;3.30;;
15944;SDS011;30172;48.832;8.732;2022-09-03T00:55:48;3.90;;;3.60;;
15944;SDS011;30172;48.832;8.732;2022-09-03T00:58:28;4.63;;;3.35;;
15944;SDS011;30172;48.832;8.732;2022-09-03T01:01:01;4.00;;;3.60;;
15944;SDS011;30172;48.832;8.732;2022-09-03T01:03:41;3.80;;;3.47;;
15944;SDS011;30172;48.832;8.732;2022-09-03T01:06:18;3.55;;;3.25;;
15944;SDS011;30172;48.832;8.732;2022-09-03T01:16:52;5.43;;;3.50;;
15944;SDS011;30172;48.832;8.732;2022-09-03T01:22:08;3.67;;;3.38;;
15944;SDS011;30172;48.832;8.732;2022-09-03T01:27:31;4.07;;;3.28;;
15944;SDS011;30172;48.832;8.732;2022-09-03T01:30:04;4.57;;;3.38;;
15944;SDS011;30172;48.832;8.732;2022-09-03T01:32:53;3.70;;;3.40;;
15944;SDS011;30172;48.832;8.732;2022-09-03T01:35:34;3.70;;;3.40;;
15944;SDS011;30172;48.832;8.732;2022-09-03T01:38:15;3.50;;;3.30;;
15944;SDS011;30172;48.832;8.732;2022-09-03T01:40:55;7.15;;;3.65;;
15944;SDS011;30172;48.832;8.732;2022-09-03T01:46:49;3.10;;;2.90;;
15944;SDS011;30172;48.832;8.732;2022-09-03T01:49:23;4.20;;;3.80;;
15944;SDS011;30172;48.832;8.732;2022-09-03T01:51:58;4.65;;;3.50;;
15944;SDS011;30172;48.832;8.732;2022-09-03T01:57:31;3.70;;;3.40;;
15944;SDS011;30172;48.832;8.732;2022-09-03T02:00:04;4.43;;;3.80;;
15944;SDS011;30172;48.832;8.732;2022-09-03T02:02:37;4.32;;;3.83;;
15944;SDS011;30172;48.832;8.732;2022-09-03T02:07:46;3.97;;;3.67;;
15944;SDS011;30172;48.832;8.732;2022-09-03T02:10:14;4.10;;;3.75;;
15944;SDS011;30172;48.832;8.732;2022-09-03T02:12:43;4.32;;;3.80;;
15944;SDS011;30172;48.832;8.732;2022-09-03T02:15:12;4.53;;;3.53;;
15944;SDS011;30172;48.832;8.732;2022-09-03T02:17:40;8.82;;;4.38;;
15944;SDS011;30172;48.832;8.732;2022-09-03T02:20:07;3.70;;;3.40;;
15944;SDS011;30172;48.832;8.732;2022-09-03T02:22:35;3.92;;;3.63;;
15944;SDS011;30172;48.832;8.732;2022-09-03T02:25:02;4.60;;;4.03;;
15944;SDS011;30172;48.832;8.732;2022-09-03T02:27:27;4.03;;;3.63;;
15944;SDS011;30172;48.832;8.732;2022-09-03T02:29:52;3.92;;;3.50;;
15944;SDS011;30172;48.832;8.732;2022-09-03T02:32:18;5.57;;;3.67;;
15944;SDS011;30172;48.832;8.732;2022-09-03T02:34:43;5.60;;;3.63;;
15944;SDS011;30172;48.832;8.732;2022-09-03T02:37:12;4.25;;;3.58;;
15944;SDS011;30172;48.832;8.732;2022-09-03T02:39:38;3.75;;;3.45;;
15944;SDS011;30172;48.832;8.732;2022-09-03T02:42:05;3.50;;;3.20;;
15944;SDS011;30172;48.832;8.732;2022-09-03T02:44:30;3.70;;;3.42;;
15944;SDS011;30172;48.832;8.732;2022-09-03T02:47:01;4.07;;;3.72;;
15944;SDS011;30172;48.832;8.732;2022-09-03T02:49:28;4.28;;;3.45;;
15944;SDS011;30172;48.832;8.732;2022-09-03T02:52:01;3.95;;;3.53;;
15944;SDS011;30172;48.832;8.732;2022-09-03T02:54:33;3.80;;;3.42;;
15944;SDS011;30172;48.832;8.732;2022-09-03T02:57:09;4.80;;;3.55;;
15944;SDS011;30172;48.832;8.732;2022-09-03T02:59:36;4.30;;;3.58;;
15944;SDS011;30172;48.832;8.732;2022-09-03T03:02:03;3.70;;;3.30;;
15944;SDS011;30172;48.832;8.732;2022-09-03T03:04:29;3.47;;;3.17;;
15944;SDS011;30172;48.832;8.732;2022-09-03T03:06:54;4.00;;;3.60;;
15944;SDS011;30172;48.832;8.732;2022-09-03T03:09:20;6.10;;;3.55;;
15944;SDS011;30172;48.832;8.732;2022-09-03T03:11:45;4.10;;;3.42;;
15944;SDS011;30172;48.832;8.732;2022-09-03T03:14:10;6.20;;;3.63;;
15944;SDS011;30172;48.832;8.732;2022-09-03T03:16:36;4.53;;;3.45;;
15944;SDS011;30172;48.832;8.732;2022-09-03T03:19:01;3.53;;;2.90;;
15944;SDS011;30172;48.832;8.732;2022-09-03T03:21:26;4.03;;;3.10;;
15944;SDS011;30172;48.832;8.732;2022-09-03T03:23:52;4.03;;;3.30;;
15944;SDS011;30172;48.832;8.732;2022-09-03T03:26:18;4.00;;;3.60;;
15944;SDS011;30172;48.832;8.732;2022-09-03T03:28:44;4.45;;;3.47;;
15944;SDS011;30172;48.832;8.732;2022-09-03T03:31:11;3.38;;;3.17;;
15944;SDS011;30172;48.832;8.732;2022-09-03T03:33:38;3.97;;;3.50;;
15944;SDS011;30172;48.832;8.732;2022-09-03T03:36:04;3.47;;;3.15;;
15944;SDS011;30172;48.832;8.732;2022-09-03T03:38:31;4.30;;;3.30;;
15944;SDS011;30172;48.832;8.732;2022-09-03T03:40:56;3.50;;;3.20;;
15944;SDS011;30172;48.832;8.732;2022-09-03T03:43:21;3.63;;;3.33;;
15944;SDS011;30172;48.832;8.732;2022-09-03T03:45:59;3.63;;;3.33;;
15944;SDS011;30172;48.832;8.732;2022-09-03T03:48:24;7.57;;;3.40;;
15944;SDS011;30172;48.832;8.732;2022-09-03T03:50:50;3.53;;;3.22;;
15944;SDS011;30172;48.832;8.732;2022-09-03T03:53:16;3.65;;;3.35;;
15944;SDS011;30172;48.832;8.732;2022-09-03T03:55:41;3.92;;;3.55;;
15944;SDS011;30172;48.832;8.732;2022-09-03T03:58:06;7.47;;;3.97;;
15944;SDS011;30172;48.832;8.732;2022-09-03T04:00:32;3.40;;;3.10;;
15944;SDS011;30172;48.832;8.732;2022-09-03T04:03:01;5.00;;;3.75;;
15944;SDS011;30172;48.832;8.732;2022-09-03T04:05:28;3.45;;;3.25;;
15944;SDS011;30172;48.832;8.732;2022-09-03T04:07:53;7.05;;;4.13;;
15944;SDS011;30172;48.832;8.732;2022-09-03T04:10:18;4.68;;;4.07;;
15944;SDS011;30172;48.832;8.732;2022-09-03T04:12:44;4.07;;;3.78;;
15944;SDS011;30172;48.832;8.732;2022-09-03T04:15:09;5.00;;;3.83;;
15944;SDS011;30172;48.832;8.732;2022-09-03T04:17:34;4.97;;;4.00;;
15944;SDS011;30172;48.832;8.732;2022-09-03T04:20:00;4.30;;;4.00;;
15944;SDS011;30172;48.832;8.732;2022-09-03T04:22:26;5.80;;;3.72;;
15944;SDS011;30172;48.832;8.732;2022-09-03T04:24:53;3.78;;;3.47;;
15944;SDS011;30172;48.832;8.732;2022-09-03T04:27:18;4.10;;;3.80;;
15944;SDS011;30172;48.832;8.732;2022-09-03T04:29:43;5.68;;;3.97;;
15944;SDS011;30172;48.832;8.732;2022-09-03T04:32:09;3.70;;;3.40;;
15944;SDS011;30172;48.832;8.732;2022-09-03T04:34:53;4.20;;;3.63;;
15944;SDS011;30172;48.832;8.732;2022-09-03T04:37:18;4.43;;;3.75;;
15944;SDS011;30172;48.832;8.732;2022-09-03T04:39:44;3.92;;;3.63;;
15944;SDS011;30172;48.832;8.732;2022-09-03T04:42:09;3.88;;;3.58;;
15944;SDS011;30172;48.832;8.732;2022-09-03T04:44:34;4.15;;;3.72;;
15944;SDS011;30172;48.832;8.732;2022-09-03T04:47:02;4.40;;;4.10;;
15944;SDS011;30172;48.832;8.732;2022-09-03T04:49:28;5.40;;;4.07;;
15944;SDS011;30172;48.832;8.732;2022-09-03T04:51:54;4.25;;;3.85;;
15944;SDS011;30172;48.832;8.732;2022-09-03T04:54:19;4.38;;;3.65;;
15944;SDS011;30172;48.832;8.732;2022-09-03T04:56:44;4.22;;;3.80;;
15944;SDS011;30172;48.832;8.732;2022-09-03T04:59:10;4.97;;;4.15;;
15944;SDS011;30172;48.832;8.732;2022-09-03T05:01:36;4.55;;;4.15;;
15944;SDS011;30172;48.832;8.732;2022-09-03T05:04:02;4.90;;;4.50;;
15944;SDS011;30172;48.832;8.732;2022-09-03T05:06:29;4.70;;;4.30;;
15944;SDS011;30172;48.832;8.732;2022-09-03T05:08:55;4.40;;;4.10;;
15944;SDS011;30172;48.832;8.732;2022-09-03T05:11:21;4.93;;;4.30;;
15944;SDS011;30172;48.832;8.732;2022-09-03T05:13:48;4.10;;;3.80;;
15944;SDS011;30172;48.832;8.732;2022-09-03T05:16:14;4.63;;;4.03;;
15944;SDS011;30172;48.832;8.732;2022-09-03T05:18:39;4.55;;;4.15;;
15944;SDS011;30172;48.832;8.732;2022-09-03T05:21:10;5.55;;;4.22;;
15944;SDS011;30172;48.832;8.732;2022-09-03T05:23:41;4.28;;;3.88;;
15944;SDS011;30172;48.832;8.732;2022-09-03T05:26:08;5.88;;;3.92;;
15944;SDS011;30172;48.832;8.732;2022-09-03T05:28:36;7.05;;;4.22;;
15944;SDS011;30172;48.832;8.732;2022-09-03T05:33:33;4.43;;;4.05;;
15944;SDS011;30172;48.832;8.732;2022-09-03T05:36:06;3.92;;;3.63;;
15944;SDS011;30172;48.832;8.732;2022-09-03T05:38:33;4.80;;;4.07;;
15944;SDS011;30172;48.832;8.732;2022-09-03T05:41:00;4.00;;;3.70;;
15944;SDS011;30172;48.832;8.732;2022-09-03T05:43:27;4.60;;;4.10;;
15944;SDS011;30172;48.832;8.732;2022-09-03T05:45:56;5.30;;;4.05;;
15944;SDS011;30172;48.832;8.732;2022-09-03T05:48:24;4.30;;;3.90;;
15944;SDS011;30172;48.832;8.732;2022-09-03T05:50:49;4.45;;;4.05;;
15944;SDS011;30172;48.832;8.732;2022-09-03T05:53:33;5.50;;;4.50;;
15944;SDS011;30172;48.832;8.732;2022-09-03T05:56:06;4.85;;;4.38;;
15944;SDS011;30172;48.832;8.732;2022-09-03T05:58:41;4.53;;;4.13;;
15944;SDS011;30172;48.832;8.732;2022-09-03T06:01:13;4.60;;;3.92;;
15944;SDS011;30172;48.832;8.732;2022-09-03T06:03:41;4.57;;;4.18;;
15944;SDS011;30172;48.832;8.732;2022-09-03T06:06:08;4.57;;;4.13;;
15944;SDS011;30172;48.832;8.732;2022-09-03T06:08:34;4.45;;;4.07;;
15944;SDS011;30172;48.832;8.732;2022-09-03T06:11:00;3.95;;;3.65;;
15944;SDS011;30172;48.832;8.732;2022-09-03T06:13:28;4.40;;;4.10;;
15944;SDS011;30172;48.832;8.732;2022-09-03T06:15:56;4.28;;;3.65;;
15944;SDS011;30172;48.832;8.732;2022-09-03T06:18:27;5.25;;;4.30;;
15944;SDS011;30172;48.832;8.732;2022-09-03T06:20:53;4.13;;;3.65;;
15944;SDS011;30172;48.832;8.732;2022-09-03T06:23:19;4.55;;;4.15;;
15944;SDS011;30172;48.832;8.732;2022-09-03T06:25:44;4.40;;;4.00;;
15944;SDS011;30172;48.832;8.732;2022-09-03T06:28:09;4.97;;;4.10;;
15944;SDS011;30172;48.832;8.732;2022-09-03T06:30:35;4.93;;;4.40;;
15944;SDS011;30172;48.832;8.732;2022-09-03T06:33:01;4.95;;;4.13;;
15944;SDS011;30172;48.832;8.732;2022-09-03T06:35:26;4.95;;;4.10;;
15944;SDS011;30172;48.832;8.732;2022-09-03T06:37:51;5.07;;;4.57;;
15944;SDS011;30172;48.832;8.732;2022-09-03T06:40:17;4.75;;;4.35;;
15944;SDS011;30172;48.832;8.732;2022-09-03T06:42:54;7.28;;;5.20;;
15944;SDS011;30172;48.832;8.732;2022-09-03T06:45:25;4.63;;;4.22;;
15944;SDS011;30172;48.832;8.732;2022-09-03T06:47:52;6.40;;;4.43;;
15944;SDS011;30172;48.832;8.732;2022-09-03T06:50:17;4.90;;;4.55;;
15944;SDS011;30172;48.832;8.732;2022-09-03T06:52:43;4.72;;;4.32;;
15944;SDS011;30172;48.832;8.732;2022-09-03T06:55:08;5.65;;;4.43;;
15944;SDS011;30172;48.832;8.732;2022-09-03T06:57:33;7.28;;;4.03;;
15944;SDS011;30172;48.832;8.732;2022-09-03T06:59:59;5.07;;;4.40;;
15944;SDS011;30172;48.832;8.732;2022-09-03T07:02:26;4.68;;;4.28;;
15944;SDS011;30172;48.832;8.732;2022-09-03T07:04:51;5.03;;;4.53;;
15944;SDS011;30172;48.832;8.732;2022-09-03T07:07:17;4.78;;;4.43;;
15944;SDS011;30172;48.832;8.732;2022-09-03T07:09:42;4.72;;;4.35;;
15944;SDS011;30172;48.832;8.732;2022-09-03T07:12:07;5.30;;;4.82;;
15944;SDS011;30172;48.832;8.732;2022-09-03T07:14:35;4.90;;;4.50;;
15944;SDS011;30172;48.832;8.732;2022-09-03T07:17:00;6.35;;;4.35;;
15944;SDS011;30172;48.832;8.732;2022-09-03T07:19:25;4.72;;;4.32;;
15944;SDS011;30172;48.832;8.732;2022-09-03T07:21:50;4.93;;;4.47;;
15944;SDS011;30172;48.832;8.732;2022-09-03T07:24:16;8.30;;;4.57;;
15944;SDS011;30172;48.832;8.732;2022-09-03T07:26:42;4.18;;;3.78;;
15944;SDS011;30172;48.832;8.732;2022-09-03T07:29:10;4.07;;;3.70;;
15944;SDS011;30172;48.832;8.732;2022-09-03T07:31:36;6.45;;;4.45;;
15944;SDS011;30172;48.832;8.732;2022-09-03T07:34:04;4.90;;;4.07;;
15944;SDS011;30172;48.832;8.732;2022-09-03T07:36:34;5.50;;;4.50;;
15944;SDS011;30172;48.832;8.732;2022-09-03T07:39:02;4.80;;;4.30;;
15944;SDS011;30172;48.832;8.732;2022-09-03T07:41:28;4.50;;;4.20;;
15944;SDS011;30172;48.832;8.732;2022-09-03T07:43:57;5.30;;;4.80;;
15944;SDS011;30172;48.832;8.732;2022-09-03T07:46:24;4.90;;;4.50;;
15944;SDS011;30172;48.832;8.732;2022-09-03T07:48:51;4.97;;;4.57;;
15944;SDS011;30172;48.832;8.732;2022-09-03T07:51:18;5.00;;;4.50;;
15944;SDS011;30172;48.832;8.732;2022-09-03T07:53:45;4.85;;;4.45;;
15944;SDS011;30172;48.832;8.732;2022-09-03T07:56:11;4.45;;;4.05;;
15944;SDS011;30172;48.832;8.732;2022-09-03T07:58:37;7.32;;;4.22;;
15944;SDS011;30172;48.832;8.732;2022-09-03T08:01:08;5.20;;;4.70;;
15944;SDS011;30172;48.832;8.732;2022-09-03T08:03:35;4.80;;;4.40;;
15944;SDS011;30172;48.832;8.732;2022-09-03T08:06:01;4.47;;;4.07;;
15944;SDS011;30172;48.832;8.732;2022-09-03T08:08:27;4.75;;;4.35;;
15944;SDS011;30172;48.832;8.732;2022-09-03T08:10:52;6.53;;;4.30;;
15944;SDS011;30172;48.832;8.732;2022-09-03T08:13:18;4.68;;;4.13;;
15944;SDS011;30172;48.832;8.732;2022-09-03T08:15:53;4.45;;;3.95;;
15944;SDS011;30172;48.832;8.732;2022-09-03T08:18:19;6.88;;;4.70;;
15944;SDS011;30172;48.832;8.732;2022-09-03T08:20:44;6.07;;;4.80;;
15944;SDS011;30172;48.832;8.732;2022-09-03T08:23:11;5.00;;;4.50;;
15944;SDS011;30172;48.832;8.732;2022-09-03T08:25:36;4.80;;;4.40;;
15944;SDS011;30172;48.832;8.732;2022-09-03T08:28:02;5.80;;;4.60;;
15944;SDS011;30172;48.832;8.732;2022-09-03T08:30:28;7.90;;;4.40;;
15944;SDS011;30172;48.832;8.732;2022-09-03T08:32:53;4.95;;;4.55;;
15944;SDS011;30172;48.832;8.732;2022-09-03T08:35:19;5.22;;;4.72;;
15944;SDS011;30172;48.832;8.732;2022-09-03T08:37:45;5.95;;;4.72;;
15944;SDS011;30172;48.832;8.732;2022-09-03T08:40:13;5.65;;;5.15;;
15944;SDS011;30172;48.832;8.732;2022-09-03T08:42:44;7.60;;;5.45;;
15944;SDS011;30172;48.832;8.732;2022-09-03T08:45:17;6.75;;;5.80;;
15944;SDS011;30172;48.832;8.732;2022-09-03T08:47:47;5.70;;;5.10;;
15944;SDS011;30172;48.832;8.732;2022-09-03T08:53:02;7.90;;;4.95;;
15944;SDS011;30172;48.832;8.732;2022-09-03T08:58:24;6.20;;;5.00;;
15944;SDS011;30172;48.832;8.732;2022-09-03T09:06:41;5.13;;;4.70;;
15944;SDS011;30172;48.832;8.732;2022-09-03T09:09:14;7.55;;;5.72;;
15944;SDS011;30172;48.832;8.732;2022-09-03T09:14:31;6.43;;;4.20;;
15944;SDS011;30172;48.832;8.732;2022-09-03T09:20:13;5.18;;;4.68;;
15944;SDS011;30172;48.832;8.732;2022-09-03T09:22:48;6.90;;;4.25;;
15944;SDS011;30172;48.832;8.732;2022-09-03T09:25:20;4.25;;;3.95;;
15944;SDS011;30172;48.832;8.732;2022-09-03T09:27:47;5.13;;;4.63;;
15944;SDS011;30172;48.832;8.732;2022-09-03T09:30:16;4.35;;;4.00;;
15944;SDS011;30172;48.832;8.732;2022-09-03T09:32:42;5.88;;;4.43;;
15944;SDS011;30172;48.832;8.732;2022-09-03T09:35:08;4.90;;;4.40;;
15944;SDS011;30172;48.832;8.732;2022-09-03T09:37:34;4.53;;;4.13;;
15944;SDS011;30172;48.832;8.732;2022-09-03T09:40:10;5.32;;;4.82;;
15944;SDS011;30172;48.832;8.732;2022-09-03T09:42:35;6.65;;;4.88;;
15944;SDS011;30172;48.832;8.732;2022-09-03T09:45:07;5.60;;;5.10;;
15944;SDS011;30172;48.832;8.732;2022-09-03T09:47:37;5.50;;;4.93;;
15944;SDS011;30172;48.832;8.732;2022-09-03T09:50:03;4.95;;;4.55;;
15944;SDS011;30172;48.832;8.732;2022-09-03T09:52:41;5.97;;;4.90;;
15944;SDS011;30172;48.832;8.732;2022-09-03T09:55:09;7.65;;;5.05;;
15944;SDS011;30172;48.832;8.732;2022-09-03T09:57:38;5.22;;;4.50;;
15944;SDS011;30172;48.832;8.732;2022-09-03T10:00:05;5.72;;;4.70;;
15944;SDS011;30172;48.832;8.732;2022-09-03T10:02:34;4.45;;;4.05;;
15944;SDS011;30172;48.832;8.732;2022-09-03T10:05:24;4.90;;;4.07;;
15944;SDS011;30172;48.832;8.732;2022-09-03T10:08:33;4.60;;;3.90;;
15944;SDS011;30172;48.832;8.732;2022-09-03T10:10:44;5.50;;;4.38;;
15944;SDS011;30172;48.832;8.732;2022-09-03T10:13:16;4.18;;;3.88;;
15944;SDS011;30172;48.832;8.732;2022-09-03T10:15:47;5.93;;;3.97;;
15944;SDS011;30172;48.832;8.732;2022-09-03T10:18:22;6.15;;;3.78;;
15944;SDS011;30172;48.832;8.732;2022-09-03T10:21:05;4.43;;;4.13;;
15944;SDS011;30172;48.832;8.732;2022-09-03T10:26:23;4.15;;;3.28;;
15944;SDS011;30172;48.832;8.732;2022-09-03T10:29:02;4.85;;;3.80;;
15944;SDS011;30172;48.832;8.732;2022-09-03T10:47:56;3.90;;;3.53;;
15944;SDS011;30172;48.832;8.732;2022-09-03T10:50:30;4.57;;;3.42;;
15944;SDS011;30172;48.832;8.732;2022-09-03T10:56:29;5.50;;;3.35;;
15944;SDS011;30172;48.832;8.732;2022-09-03T11:01:26;3.70;;;3.40;;
15944;SDS011;30172;48.832;8.732;2022-09-03T11:06:53;3.58;;;3.25;;
15944;SDS011;30172;48.832;8.732;2022-09-03T11:09:21;3.60;;;3.30;;
15944;SDS011;30172;48.832;8.732;2022-09-03T11:11:55;3.33;;;3.10;;
15944;SDS011;30172;48.832;8.732;2022-09-03T11:14:34;4.45;;;3.35;;
15944;SDS011;30172;48.832;8.732;2022-09-03T11:17:04;3.45;;;3.20;;
15944;SDS011;30172;48.832;8.732;2022-09-03T11:19:35;3.78;;;3.47;;
15944;SDS011;30172;48.832;8.732;2022-09-03T11:22:05;3.90;;;3.50;;
15944;SDS011;30172;48.832;8.732;2022-09-03T11:24:31;3.78;;;3.47;;
15944;SDS011;30172;48.832;8.732;2022-09-03T11:27:01;4.22;;;3.85;;
15944;SDS011;30172;48.832;8.732;2022-09-03T11:29:40;3.85;;;3.08;;
15944;SDS011;30172;48.832;8.732;2022-09-03T11:32:20;3.63;;;3.33;;
15944;SDS011;30172;48.832;8.732;2022-09-03T11:34:49;3.60;;;3.30;;
15944;SDS011;30172;48.832;8.732;2022-09-03T11:37:17;3.40;;;3.10;;
15944;SDS011;30172;48.832;8.732;2022-09-03T11:40:05;3.60;;;3.30;;
15944;SDS011;30172;48.832;8.732;2022-09-03T11:42:39;3.33;;;3.05;;
15944;SDS011;30172;48.832;8.732;2022-09-03T11:47:56;4.47;;;3.30;;
15944;SDS011;30172;48.832;8.732;2022-09-03T11:50:23;3.72;;;3.25;;
15944;SDS011;30172;48.832;8.732;2022-09-03T11:52:51;3.38;;;3.13;;
15944;SDS011;30172;48.832;8.732;2022-09-03T11:55:25;3.58;;;3.28;;
15944;SDS011;30172;48.832;8.732;2022-09-03T11:57:54;3.35;;;3.15;;
15944;SDS011;30172;48.832;8.732;2022-09-03T12:00:19;4.07;;;3.25;;
15944;SDS011;30172;48.832;8.732;2022-09-03T12:02:49;4.68;;;3.03;;
15944;SDS011;30172;48.832;8.732;2022-09-03T12:05:21;4.43;;;3.35;;
15944;SDS011;30172;48.832;8.732;2022-09-03T12:10:44;3.25;;;2.95;;
15944;SDS011;30172;48.832;8.732;2022-09-03T12:13:35;2.80;;;2.40;;
15944;SDS011;30172;48.832;8.732;2022-09-03T12:19:19;3.10;;;2.90;;
15944;SDS011;30172;48.832;8.732;2022-09-03T12:21:50;2.97;;;2.70;;
15944;SDS011;30172;48.832;8.732;2022-09-03T12:24:16;2.22;;;2.05;;
15944;SDS011;30172;48.832;8.732;2022-09-03T12:26:43;2.30;;;2.05;;
15944;SDS011;30172;48.832;8.732;2022-09-03T12:29:24;3.25;;;2.30;;
15944;SDS011;30172;48.832;8.732;2022-09-03T12:31:51;2.00;;;1.90;;
15944;SDS011;30172;48.832;8.732;2022-09-03T12:34:17;2.45;;;2.25;;
15944;SDS011;30172;48.832;8.732;2022-09-03T12:36:45;2.72;;;2.20;;
15944;SDS011;30172;48.832;8.732;2022-09-03T12:39:13;2.22;;;2.05;;
15944;SDS011;30172;48.832;8.732;2022-09-03T12:44:29;3.20;;;2.90;;
15944;SDS011;30172;48.832;8.732;2022-09-03T12:47:02;3.38;;;3.13;;
15944;SDS011;30172;48.832;8.732;2022-09-03T12:49:33;3.30;;;3.00;;
15944;SDS011;30172;48.832;8.732;2022-09-03T12:52:03;2.65;;;2.10;;
15944;SDS011;30172;48.832;8.732;2022-09-03T12:54:31;2.80;;;2.28;;
15944;SDS011;30172;48.832;8.732;2022-09-03T12:56:57;2.40;;;2.20;;
15944;SDS011;30172;48.832;8.732;2022-09-03T12:59:23;3.08;;;2.40;;
15944;SDS011;30172;48.832;8.732;2022-09-03T13:01:52;3.65;;;2.30;;
15944;SDS011;30172;48.832;8.732;2022-09-03T13:04:30;3.10;;;2.20;;
15944;SDS011;30172;48.832;8.732;2022-09-03T13:06:59;3.03;;;1.88;;
15944;SDS011;30172;48.832;8.732;2022-09-03T13:09:27;3.63;;;1.92;;
15944;SDS011;30172;48.832;8.732;2022-09-03T13:11:54;2.40;;;2.20;;
15944;SDS011;30172;48.832;8.732;2022-09-03T13:14:23;2.17;;;1.80;;
15944;SDS011;30172;48.832;8.732;2022-09-03T13:19:55;3.25;;;1.73;;
15944;SDS011;30172;48.832;8.732;2022-09-03T13:28:40;1.90;;;1.80;;
15944;SDS011;30172;48.832;8.732;2022-09-03T13:31:21;1.85;;;1.50;;
15944;SDS011;30172;48.832;8.732;2022-09-03T13:34:08;1.83;;;1.73;;
15944;SDS011;30172;48.832;8.732;2022-09-03T13:36:45;3.97;;;1.83;;
15944;SDS011;30172;48.832;8.732;2022-09-03T13:39:23;2.63;;;1.88;;
15944;SDS011;30172;48.832;8.732;2022-09-03T13:41:54;3.47;;;2.10;;
15944;SDS011;30172;48.832;8.732;2022-09-03T13:45:19;6.47;;;2.33;;
15944;SDS011;30172;48.832;8.732;2022-09-03T13:50:08;8.75;;;3.13;;
15944;SDS011;30172;48.832;8.732;2022-09-03T13:52:50;4.38;;;3.55;;
15944;SDS011;30172;48.832;8.732;2022-09-03T13:58:19;6.13;;;3.10;;
15944;SDS011;30172;48.832;8.732;2022-09-03T14:03:42;3.15;;;2.33;;
15944;SDS011;30172;48.832;8.732;2022-09-03T14:06:34;6.35;;;2.25;;
15944;SDS011;30172;48.832;8.732;2022-09-03T14:14:22;6.18;;;2.60;;
15944;SDS011;30172;48.832;8.732;2022-09-03T14:17:01;3.55;;;2.00;;
15944;SDS011;30172;48.832;8.732;2022-09-03T14:22:46;2.53;;;2.10;;
15944;SDS011;30172;48.832;8.732;2022-09-03T14:25:16;3.63;;;2.25;;
15944;SDS011;30172;48.832;8.732;2022-09-03T14:27:42;2.97;;;2.22;;
15944;SDS011;30172;48.832;8.732;2022-09-03T14:36:11;3.13;;;2.38;;
15944;SDS011;30172;48.832;8.732;2022-09-03T14:38:45;3.58;;;2.40;;
15944;SDS011;30172;48.832;8.732;2022-09-03T14:47:13;2.50;;;2.30;;
15944;SDS011;30172;48.832;8.732;2022-09-03T14:53:08;2.95;;;2.05;;
15944;SDS011;30172;48.832;8.732;2022-09-03T14:55:55;2.08;;;1.90;;
15944;SDS011;30172;48.832;8.732;2022-09-03T14:58:51;2.20;;;2.00;;
15944;SDS011;30172;48.832;8.732;2022-09-03T15:01:32;2.42;;;2.22;;
15944;SDS011;30172;48.832;8.732;2022-09-03T15:06:38;2.55;;;2.13;;
15944;SDS011;30172;48.832;8.732;2022-09-03T15:09:21;2.50;;;2.30;;
15944;SDS011;30172;48.832;8.732;2022-09-03T15:12:08;2.25;;;2.05;;
15944;SDS011;30172;48.832;8.732;2022-09-03T15:17:21;3.42;;;2.63;;
15944;SDS011;30172;48.832;8.732;2022-09-03T15:20:18;2.90;;;2.50;;
15944;SDS011;30172;48.832;8.732;2022-09-03T15:25:55;2.92;;;2.60;;
15944;SDS011;30172;48.832;8.732;2022-09-03T15:36:50;2.70;;;2.47;;
15944;SDS011;30172;48.832;8.732;2022-09-03T15:39:22;2.95;;;2.65;;
15944;SDS011;30172;48.832;8.732;2022-09-03T15:41:51;3.50;;;3.20;;
15944;SDS011;30172;48.832;8.732;2022-09-03T15:44:19;3.40;;;3.10;;
15944;SDS011;30172;48.832;8.732;2022-09-03T16:00:47;3.30;;;3.00;;
15944;SDS011;30172;48.832;8.732;2022-09-03T16:03:15;2.83;;;2.63;;
15944;SDS011;30172;48.832;8.732;2022-09-03T16:05:50;3.63;;;3.28;;
15944;SDS011;30172;48.832;8.732;2022-09-03T16:08:28;5.75;;;2.72;;
15944;SDS011;30172;48.832;8.732;2022-09-03T16:11:00;3.13;;;2.80;;
15944;SDS011;30172;48.832;8.732;2022-09-03T16:13:52;3.35;;;2.60;;
15944;SDS011;30172;48.832;8.732;2022-09-03T16:16:24;3.30;;;2.50;;
15944;SDS011;30172;48.832;8.732;2022-09-03T16:18:56;3.03;;;2.83;;
15944;SDS011;30172;48.832;8.732;2022-09-03T16:21:59;2.60;;;2.40;;
15944;SDS011;30172;48.832;8.732;2022-09-03T16:24:46;2.53;;;2.33;;
15944;SDS011;30172;48.832;8.732;2022-09-03T16:27:21;2.88;;;2.55;;
15944;SDS011;30172;48.832;8.732;2022-09-03T16:30:08;3.78;;;2.50;;
15944;SDS011;30172;48.832;8.732;2022-09-03T16:32:51;3.03;;;2.72;;
15944;SDS011;30172;48.832;8.732;2022-09-03T16:35:34;2.28;;;2.17;;
15944;SDS011;30172;48.832;8.732;2022-09-03T16:40:35;3.22;;;2.38;;
15944;SDS011;30172;48.832;8.732;2022-09-03T16:46:03;3.40;;;2.15;;
15944;SDS011;30172;48.832;8.732;2022-09-03T17:13:38;2.60;;;2.40;;
15944;SDS011;30172;48.832;8.732;2022-09-03T17:24:27;15.48;;;8.63;;
15944;SDS011;30172;48.832;8.732;2022-09-03T17:30:14;3.17;;;2.50;;
15944;SDS011;30172;48.832;8.732;2022-09-03T17:35:31;2.75;;;2.55;;
15944;SDS011;30172;48.832;8.732;2022-09-03T17:40:47;2.60;;;2.40;;
15944;SDS011;30172;48.832;8.732;2022-09-03T17:43:40;2.30;;;2.10;;
15944;SDS011;30172;48.832;8.732;2022-09-03T17:46:23;2.58;;;2.38;;
15944;SDS011;30172;48.832;8.732;2022-09-03T17:48:57;2.88;;;2.67;;
15944;SDS011;30172;48.832;8.732;2022-09-03T17:54:31;4.32;;;3.03;;
15944;SDS011;30172;48.832;8.732;2022-09-03T17:57:10;4.75;;;3.00;;
15944;SDS011;30172;48.832;8.732;2022-09-03T18:00:05;2.95;;;2.65;;
15944;SDS011;30172;48.832;8.732;2022-09-03T18:02:44;6.32;;;3.45;;
15944;SDS011;30172;48.832;8.732;2022-09-03T18:10:44;3.50;;;3.20;;
15944;SDS011;30172;48.832;8.732;2022-09-03T18:13:18;4.72;;;3.17;;
15944;SDS011;30172;48.832;8.732;2022-09-03T18:18:23;3.25;;;2.95;;
15944;SDS011;30172;48.832;8.732;2022-09-03T18:20:52;3.50;;;2.90;;
15944;SDS011;30172;48.832;8.732;2022-09-03T18:26:43;3.63;;;3.03;;
15944;SDS011;30172;48.832;8.732;2022-09-03T18:29:32;3.67;;;3.08;;
15944;SDS011;30172;48.832;8.732;2022-09-03T18:32:19;3.35;;;3.10;;
15944;SDS011;30172;48.832;8.732;2022-09-03T18:35:03;4.70;;;3.03;;
15944;SDS011;30172;48.832;8.732;2022-09-03T18:37:47;3.25;;;2.70;;
15944;SDS011;30172;48.832;8.732;2022-09-03T18:40:44;3.30;;;3.00;;
15944;SDS011;30172;48.832;8.732;2022-09-03T18:43:36;6.30;;;4.55;;
15944;SDS011;30172;48.832;8.732;2022-09-03T18:49:39;4.63;;;4.22;;
15944;SDS011;30172;48.832;8.732;2022-09-03T18:52:45;8.55;;;4.47;;
15944;SDS011;30172;48.832;8.732;2022-09-03T18:55:48;5.40;;;4.82;;
15944;SDS011;30172;48.832;8.732;2022-09-03T19:01:47;5.95;;;4.75;;
15944;SDS011;30172;48.832;8.732;2022-09-03T19:13:51;6.18;;;4.38;;
15944;SDS011;30172;48.832;8.732;2022-09-03T19:22:38;6.30;;;4.10;;
15944;SDS011;30172;48.832;8.732;2022-09-03T19:25:24;6.63;;;3.92;;